createdAt,value
2022-08-23T00:00:30.275Z,41.34
2022-08-23T00:01:31.251Z,41.00
2022-08-23T00:02:30.295Z,41.28
2022-08-23T00:03:30.245Z,41.83
2022-08-23T00:04:34.629Z,41.13
2022-08-23T00:05:31.225Z,41.54
2022-08-23T00:06:30.217Z,41.63
2022-08-23T00:07:30.222Z,43.96
2022-08-23T00:08:30.193Z,41.93
2022-08-23T00:09:30.187Z,41.13
2022-08-23T00:10:30.175Z,41.80
2022-08-23T00:11:30.170Z,41.16
2022-08-23T00:12:30.169Z,41.98
2022-08-23T00:13:47.318Z,41.86
2022-08-23T00:14:31.134Z,41.68
2022-08-23T00:15:30.131Z,41.84
2022-08-23T00:16:30.112Z,41.77
2022-08-23T00:17:33.733Z,41.71
2022-08-23T00:18:30.098Z,45.24
2022-08-23T00:19:30.091Z,44.29
2022-08-23T00:20:30.081Z,41.75
2022-08-23T00:21:30.069Z,42.06
2022-08-23T00:22:30.076Z,42.33
2022-08-23T00:23:30.056Z,41.86
2022-08-23T00:24:30.046Z,42.22
2022-08-23T00:25:30.035Z,41.95
2022-08-23T00:26:30.029Z,42.37
2022-08-23T00:27:30.033Z,43.47
2022-08-23T00:28:30.087Z,45.03
2022-08-23T00:29:30.002Z,42.59
2022-08-23T00:30:29.991Z,41.67
2022-08-23T00:31:30.075Z,42.37
2022-08-23T00:32:30.000Z,42.47
2022-08-23T00:33:29.963Z,42.84
2022-08-23T00:34:29.952Z,42.29
2022-08-23T00:35:29.954Z,42.83
2022-08-23T00:36:29.928Z,42.73
2022-08-23T00:37:29.951Z,47.93
2022-08-23T00:38:29.917Z,43.36
2022-08-23T00:39:29.910Z,42.14
2022-08-23T00:40:29.891Z,43.06
2022-08-23T00:41:29.888Z,43.48
2022-08-23T00:42:29.896Z,43.40
2022-08-23T00:43:29.873Z,42.12
2022-08-23T00:44:29.856Z,43.27
2022-08-23T00:45:29.852Z,43.27
2022-08-23T00:46:29.841Z,42.14
2022-08-23T00:47:29.846Z,43.45
2022-08-23T00:48:29.817Z,43.63
2022-08-23T00:49:29.807Z,43.49
2022-08-23T00:50:29.796Z,47.32
2022-08-23T00:51:29.791Z,43.77
2022-08-23T00:52:29.791Z,46.80
2022-08-23T00:53:29.771Z,43.56
2022-08-23T00:54:29.749Z,42.09
2022-08-23T00:55:29.757Z,44.18
2022-08-23T00:56:29.973Z,42.92
2022-08-23T00:57:29.745Z,43.06
2022-08-23T00:58:29.719Z,45.07
2022-08-23T00:59:29.726Z,42.04
2022-08-23T01:00:29.696Z,42.32
2022-08-23T01:01:29.755Z,42.45
2022-08-23T01:02:29.695Z,42.66
2022-08-23T01:03:29.674Z,42.21
2022-08-23T01:04:30.665Z,42.53
2022-08-23T01:05:29.644Z,48.23
2022-08-23T01:06:29.636Z,46.52
2022-08-23T01:07:29.650Z,43.11
2022-08-23T01:08:29.623Z,46.01
2022-08-23T01:09:29.605Z,44.33
2022-08-23T01:10:29.605Z,46.44
2022-08-23T01:11:29.594Z,42.92
2022-08-23T01:12:32.469Z,42.97
2022-08-23T01:13:29.572Z,43.20
2022-08-23T01:14:29.559Z,43.14
2022-08-23T01:15:29.550Z,43.20
2022-08-23T01:16:29.543Z,43.98
2022-08-23T01:17:29.568Z,43.14
2022-08-23T01:18:29.533Z,43.93
2022-08-23T01:19:30.421Z,43.26
2022-08-23T01:20:29.499Z,44.01
2022-08-23T01:21:29.496Z,44.17
2022-08-23T01:22:29.480Z,44.20
2022-08-23T01:23:29.488Z,43.85
2022-08-23T01:25:07.654Z,42.57
2022-08-23T01:25:30.454Z,44.38
2022-08-23T01:26:29.443Z,48.18
2022-08-23T01:27:29.431Z,44.02
2022-08-23T01:28:29.457Z,43.89
2022-08-23T01:29:29.413Z,42.91
2022-08-23T01:30:29.408Z,44.09
2022-08-23T01:31:29.398Z,42.85
2022-08-23T01:32:29.388Z,43.82
2022-08-23T01:33:29.389Z,44.29
2022-08-23T01:34:29.359Z,44.14
2022-08-23T01:35:29.359Z,43.43
2022-08-23T01:36:29.346Z,43.57
2022-08-23T01:37:29.336Z,43.15
2022-08-23T01:38:30.301Z,43.25
2022-08-23T01:39:29.317Z,44.03
2022-08-23T01:40:29.306Z,43.99
2022-08-23T01:41:29.301Z,43.62
2022-08-23T01:42:29.285Z,42.41
2022-08-23T01:43:29.291Z,43.88
2022-08-23T01:44:29.281Z,44.52
2022-08-23T01:45:29.257Z,44.85
2022-08-23T01:46:29.248Z,44.47
2022-08-23T01:47:29.242Z,44.19
2022-08-23T01:48:29.248Z,44.19
2022-08-23T01:49:29.220Z,44.08
2022-08-23T01:50:29.317Z,43.85
2022-08-23T01:51:29.193Z,44.09
2022-08-23T01:52:29.261Z,44.33
2022-08-23T01:53:29.193Z,44.14
2022-08-23T01:54:29.169Z,43.95
2022-08-23T01:55:29.156Z,44.31
2022-08-23T01:56:38.096Z,44.69
2022-08-23T01:57:30.141Z,43.42
2022-08-23T01:58:29.146Z,43.32
2022-08-23T01:59:29.114Z,43.85
2022-08-23T02:00:30.074Z,44.00
2022-08-23T02:01:29.109Z,43.98
2022-08-23T02:02:29.085Z,43.63
2022-08-23T02:03:29.095Z,43.73
2022-08-23T02:04:29.068Z,43.71
2022-08-23T02:05:29.053Z,44.63
2022-08-23T02:06:29.060Z,44.26
2022-08-23T02:07:29.041Z,43.88
2022-08-23T02:08:29.046Z,43.64
2022-08-23T02:09:29.017Z,48.13
2022-08-23T02:10:29.008Z,44.00
2022-08-23T02:11:28.994Z,46.84
2022-08-23T02:12:28.991Z,45.61
2022-08-23T02:13:29.001Z,44.20
2022-08-23T02:14:28.970Z,43.53
2022-08-23T02:15:28.956Z,43.26
2022-08-23T02:16:28.950Z,43.79
2022-08-23T02:17:28.938Z,42.78
2022-08-23T02:18:28.939Z,43.67
2022-08-23T02:19:28.918Z,43.90
2022-08-23T02:20:28.912Z,43.93
2022-08-23T02:21:28.899Z,42.97
2022-08-23T02:22:28.889Z,46.44
2022-08-23T02:23:28.893Z,43.85
2022-08-23T02:24:28.865Z,43.20
2022-08-23T02:25:28.859Z,45.79
2022-08-23T02:26:31.274Z,49.87
2022-08-23T02:27:28.837Z,48.40
2022-08-23T02:28:28.841Z,43.03
2022-08-23T02:29:28.822Z,45.03
2022-08-23T02:30:28.826Z,45.88
2022-08-23T02:31:28.795Z,44.95
2022-08-23T02:32:28.797Z,44.84
2022-08-23T02:33:28.823Z,44.12
2022-08-23T02:34:35.547Z,44.31
2022-08-23T02:35:28.787Z,46.37
2022-08-23T02:36:28.783Z,43.78
2022-08-23T02:37:28.774Z,44.40
2022-08-23T02:38:28.782Z,43.25
2022-08-23T02:39:28.752Z,47.49
2022-08-23T02:40:28.746Z,46.41
2022-08-23T02:41:28.732Z,51.24
2022-08-23T02:42:28.726Z,44.38
2022-08-23T02:43:28.742Z,43.37
2022-08-23T02:44:28.713Z,44.09
2022-08-23T02:45:28.692Z,44.90
2022-08-23T02:46:28.682Z,44.59
2022-08-23T02:47:28.669Z,47.47
2022-08-23T02:48:28.663Z,44.66
2022-08-23T02:49:28.672Z,44.36
2022-08-23T02:50:28.650Z,43.15
2022-08-23T02:51:28.632Z,44.21
2022-08-23T02:52:28.627Z,50.33
2022-08-23T02:53:28.623Z,47.56
2022-08-23T02:54:28.625Z,47.51
2022-08-23T02:55:28.602Z,44.35
2022-08-23T02:56:28.597Z,44.51
2022-08-23T02:57:28.577Z,47.61
2022-08-23T02:58:28.574Z,44.00
2022-08-23T02:59:28.575Z,43.71
2022-08-23T03:00:28.555Z,43.85
2022-08-23T03:01:28.543Z,46.66
2022-08-23T03:02:28.586Z,48.95
2022-08-23T03:03:28.525Z,44.24
2022-08-23T03:04:28.529Z,43.98
2022-08-23T03:05:28.501Z,46.31
2022-08-23T03:06:28.492Z,48.53
2022-08-23T03:07:28.481Z,44.03
2022-08-23T03:08:28.474Z,46.16
2022-08-23T03:09:28.486Z,43.59
2022-08-23T03:10:28.451Z,43.98
2022-08-23T03:11:28.444Z,50.17
2022-08-23T03:12:28.436Z,44.77
2022-08-23T03:13:28.426Z,43.71
2022-08-23T03:14:28.451Z,49.60
2022-08-23T03:15:28.405Z,50.17
2022-08-23T03:16:28.403Z,49.44
2022-08-23T03:17:28.386Z,50.24
2022-08-23T03:18:28.391Z,48.18
2022-08-23T03:19:28.391Z,46.25
2022-08-23T03:20:28.355Z,49.03
2022-08-23T03:21:28.348Z,49.53
2022-08-23T03:22:28.342Z,45.18
2022-08-23T03:23:28.322Z,43.64
2022-08-23T03:24:28.339Z,46.22
2022-08-23T03:25:28.313Z,51.26
2022-08-23T03:26:28.304Z,44.79
2022-08-23T03:27:28.308Z,46.77
2022-08-23T03:28:28.299Z,49.64
2022-08-23T03:29:28.287Z,43.56
2022-08-23T03:30:28.247Z,53.17
2022-08-23T03:31:29.254Z,49.13
2022-08-23T03:32:28.217Z,43.80
2022-08-23T03:33:28.198Z,50.03
2022-08-23T03:34:28.208Z,44.31
2022-08-23T03:35:28.185Z,47.04
2022-08-23T03:36:28.482Z,44.73
2022-08-23T03:37:28.164Z,44.86
2022-08-23T03:38:28.159Z,50.16
2022-08-23T03:39:28.160Z,47.10
2022-08-23T03:40:28.143Z,47.15
2022-08-23T03:41:28.125Z,44.07
2022-08-23T03:42:30.712Z,53.16
2022-08-23T03:43:28.106Z,50.90
2022-08-23T03:44:28.119Z,44.64
2022-08-23T03:45:28.092Z,43.04
2022-08-23T03:46:32.081Z,49.04
2022-08-23T03:47:29.081Z,43.94
2022-08-23T03:48:28.066Z,49.32
2022-08-23T03:49:28.072Z,48.30
2022-08-23T03:50:28.053Z,47.82
2022-08-23T03:51:28.041Z,48.76
2022-08-23T03:52:28.031Z,47.56
2022-08-23T03:53:28.018Z,43.24
2022-08-23T03:54:28.020Z,48.61
2022-08-23T03:55:27.989Z,51.69
2022-08-23T03:56:27.994Z,50.28
2022-08-23T03:57:27.973Z,47.90
2022-08-23T03:58:27.972Z,48.95
2022-08-23T03:59:27.971Z,50.36
2022-08-23T04:00:27.951Z,47.20
2022-08-23T04:01:28.700Z,46.79
2022-08-23T04:02:27.937Z,51.03
2022-08-23T04:03:27.923Z,44.12
2022-08-23T04:04:27.930Z,48.23
2022-08-23T04:05:27.906Z,54.19
2022-08-23T04:06:27.896Z,45.68
2022-08-23T04:07:27.882Z,51.08
2022-08-23T04:08:33.827Z,52.60
2022-08-23T04:09:28.885Z,47.09
2022-08-23T04:10:27.857Z,51.16
2022-08-23T04:11:27.847Z,48.82
2022-08-23T04:12:27.835Z,55.27
2022-08-23T04:13:27.832Z,50.96
2022-08-23T04:14:27.829Z,52.79
2022-08-23T04:15:27.807Z,50.37
2022-08-23T04:16:27.793Z,48.46
2022-08-23T04:17:27.780Z,48.55
2022-08-23T04:18:27.781Z,49.35
2022-08-23T04:19:27.783Z,50.62
2022-08-23T04:20:27.755Z,47.58
2022-08-23T04:21:27.741Z,50.25
2022-08-23T04:22:27.739Z,46.21
2022-08-23T04:23:27.731Z,51.09
2022-08-23T04:24:27.731Z,50.39
2022-08-23T04:25:34.864Z,52.04
2022-08-23T04:26:30.369Z,49.16
2022-08-23T04:27:27.686Z,51.01
2022-08-23T04:28:27.676Z,48.01
2022-08-23T04:29:34.625Z,54.22
2022-08-23T04:30:27.658Z,51.38
2022-08-23T04:31:27.645Z,48.21
2022-08-23T04:32:28.740Z,45.94
2022-08-23T04:33:27.628Z,51.94
2022-08-23T04:34:28.632Z,52.08
2022-08-23T04:35:27.609Z,49.43
2022-08-23T04:36:27.603Z,52.59
2022-08-23T04:37:28.589Z,52.90
2022-08-23T04:38:27.588Z,55.18
2022-08-23T04:39:27.602Z,54.18
2022-08-23T04:40:27.665Z,53.30
2022-08-23T04:41:27.547Z,55.61
2022-08-23T04:42:27.543Z,54.53
2022-08-23T04:43:27.534Z,53.76
2022-08-23T04:44:27.518Z,56.53
2022-08-23T04:45:27.767Z,52.12
2022-08-23T04:46:27.498Z,55.31
2022-08-23T04:47:27.486Z,51.69
2022-08-23T04:48:27.480Z,52.32
2022-08-23T04:49:27.492Z,51.39
2022-08-23T04:50:27.476Z,47.22
2022-08-23T04:51:27.445Z,52.58
2022-08-23T04:52:27.436Z,53.62
2022-08-23T04:53:27.428Z,52.65
2022-08-23T04:54:27.418Z,53.45
2022-08-23T04:55:27.432Z,50.94
2022-08-23T04:56:27.392Z,48.82
2022-08-23T04:57:27.387Z,51.59
2022-08-23T04:58:27.387Z,50.05
2022-08-23T04:59:27.366Z,57.01
2022-08-23T05:00:27.968Z,61.84
2022-08-23T05:01:27.451Z,52.56
2022-08-23T05:02:27.338Z,51.71
2022-08-23T05:03:27.325Z,52.95
2022-08-23T05:04:27.333Z,54.77
2022-08-23T05:05:27.318Z,55.46
2022-08-23T05:06:27.297Z,52.66
2022-08-23T05:07:30.982Z,53.60
2022-08-23T05:08:28.287Z,52.88
2022-08-23T05:09:27.265Z,56.23
2022-08-23T05:10:27.589Z,51.90
2022-08-23T05:11:27.246Z,54.25
2022-08-23T05:12:27.239Z,50.96
2022-08-23T05:13:27.231Z,55.17
2022-08-23T05:14:27.222Z,50.50
2022-08-23T05:15:27.410Z,49.03
2022-08-23T05:16:27.203Z,51.47
2022-08-23T05:17:27.186Z,56.93
2022-08-23T05:18:27.189Z,50.80
2022-08-23T05:19:27.191Z,50.36
2022-08-23T05:20:27.187Z,53.60
2022-08-23T05:21:27.149Z,47.35
2022-08-23T05:22:27.147Z,51.58
2022-08-23T05:23:32.068Z,50.14
2022-08-23T05:24:27.119Z,53.62
2022-08-23T05:25:27.136Z,47.25
2022-08-23T05:26:27.103Z,49.67
2022-08-23T05:27:27.090Z,46.65
2022-08-23T05:28:27.079Z,55.78
2022-08-23T05:29:27.072Z,48.61
2022-08-23T05:30:27.106Z,53.03
2022-08-23T05:31:27.048Z,50.72
2022-08-23T05:32:30.343Z,51.71
2022-08-23T05:33:27.027Z,54.03
2022-08-23T05:34:27.021Z,54.20
2022-08-23T05:35:27.024Z,43.61
2022-08-23T05:36:27.007Z,55.15
2022-08-23T05:37:26.993Z,55.40
2022-08-23T05:38:26.986Z,53.23
2022-08-23T05:39:36.155Z,50.36
2022-08-23T05:40:26.986Z,48.67
2022-08-23T05:41:37.820Z,53.45
2022-08-23T05:42:27.945Z,53.16
2022-08-23T05:43:26.968Z,54.94
2022-08-23T05:44:26.935Z,50.07
2022-08-23T05:45:26.946Z,49.06
2022-08-23T05:46:28.571Z,51.91
2022-08-23T05:47:26.904Z,52.32
2022-08-23T05:48:26.890Z,51.60
2022-08-23T05:49:26.879Z,51.57
2022-08-23T05:50:26.882Z,48.67
2022-08-23T05:51:26.877Z,55.40
2022-08-23T05:52:26.857Z,54.29
2022-08-23T05:53:26.842Z,52.86
2022-08-23T05:54:26.839Z,51.72
2022-08-23T05:55:27.569Z,49.71
2022-08-23T05:56:27.832Z,48.51
2022-08-23T05:57:26.809Z,50.70
2022-08-23T05:58:26.795Z,51.09
2022-08-23T05:59:26.790Z,45.65
2022-08-23T06:00:37.845Z,52.47
2022-08-23T06:01:27.808Z,52.43
2022-08-23T06:02:26.802Z,52.75
2022-08-23T06:03:26.743Z,49.32
2022-08-23T06:04:26.740Z,52.57
2022-08-23T06:05:26.730Z,49.21
2022-08-23T06:06:37.499Z,44.21
2022-08-23T06:07:27.707Z,49.31
2022-08-23T06:08:26.698Z,47.41
2022-08-23T06:09:26.686Z,53.85
2022-08-23T06:10:26.678Z,51.72
2022-08-23T06:11:26.688Z,46.29
2022-08-23T06:12:26.658Z,47.69
2022-08-23T06:13:26.655Z,53.69
2022-08-23T06:14:26.722Z,47.50
2022-08-23T06:15:26.663Z,42.35
2022-08-23T06:16:26.649Z,43.07
2022-08-23T06:17:26.621Z,45.03
2022-08-23T06:18:26.605Z,51.15
2022-08-23T06:19:26.597Z,46.40
2022-08-23T06:20:26.653Z,50.85
2022-08-23T06:21:26.590Z,50.46
2022-08-23T06:22:26.566Z,53.27
2022-08-23T06:23:26.568Z,42.26
2022-08-23T06:24:26.546Z,49.92
2022-08-23T06:25:26.536Z,49.88
2022-08-23T06:26:26.548Z,51.82
2022-08-23T06:27:26.520Z,50.86
2022-08-23T06:28:26.544Z,52.71
2022-08-23T06:29:26.562Z,48.30
2022-08-23T06:30:26.513Z,51.18
2022-08-23T06:31:26.606Z,48.69
2022-08-23T06:32:26.494Z,51.72
2022-08-23T06:33:26.473Z,51.14
2022-08-23T06:34:26.438Z,53.56
2022-08-23T06:35:38.167Z,52.20
2022-08-23T06:36:27.460Z,50.36
2022-08-23T06:37:26.417Z,51.43
2022-08-23T06:38:26.400Z,50.12
2022-08-23T06:39:26.399Z,54.79
2022-08-23T06:40:26.478Z,51.01
2022-08-23T06:41:26.399Z,45.57
2022-08-23T06:42:41.253Z,52.08
2022-08-23T06:43:27.362Z,49.02
2022-08-23T06:44:26.347Z,53.87
2022-08-23T06:45:33.842Z,55.81
2022-08-23T06:46:28.228Z,57.46
2022-08-23T06:47:26.320Z,52.54
2022-08-23T06:48:26.314Z,49.96
2022-08-23T06:49:26.297Z,50.95
2022-08-23T06:50:26.354Z,51.25
2022-08-23T06:51:26.552Z,50.44
2022-08-23T06:52:26.268Z,45.98
2022-08-23T06:53:26.261Z,45.98
2022-08-23T06:54:26.426Z,44.81
2022-08-23T06:55:26.247Z,52.83
2022-08-23T06:56:26.253Z,53.32
2022-08-23T06:57:26.225Z,49.95
2022-08-23T06:58:26.212Z,44.47
2022-08-23T06:59:26.200Z,50.36
2022-08-23T07:00:26.283Z,50.05
2022-08-23T07:01:44.679Z,49.91
2022-08-23T07:02:27.262Z,50.14
2022-08-23T07:03:26.165Z,43.34
2022-08-23T07:04:26.150Z,56.10
2022-08-23T07:05:26.151Z,48.00
2022-08-23T07:06:26.159Z,49.71
2022-08-23T07:07:39.697Z,40.77
2022-08-23T07:08:27.110Z,49.26
2022-08-23T07:09:26.103Z,52.60
2022-08-23T07:10:26.103Z,45.55
2022-08-23T07:11:26.104Z,51.17
2022-08-23T07:12:26.071Z,52.30
2022-08-23T07:13:26.061Z,50.11
2022-08-23T07:14:26.049Z,46.86
2022-08-23T07:15:26.044Z,52.29
2022-08-23T07:16:26.104Z,51.84
2022-08-23T07:17:26.037Z,52.66
2022-08-23T07:18:26.008Z,43.31
2022-08-23T07:19:28.949Z,40.65
2022-08-23T07:20:25.988Z,46.53
2022-08-23T07:21:25.988Z,55.03
2022-08-23T07:22:25.986Z,51.46
2022-08-23T07:23:25.973Z,51.53
2022-08-23T07:24:30.642Z,50.99
2022-08-23T07:25:26.953Z,50.04
2022-08-23T07:26:25.940Z,47.37
2022-08-23T07:27:25.948Z,50.42
2022-08-23T07:28:25.919Z,50.39
2022-08-23T07:29:25.910Z,49.66
2022-08-23T07:30:25.899Z,43.26
2022-08-23T07:31:25.971Z,47.68
2022-08-23T07:32:25.878Z,48.60
2022-08-23T07:33:25.872Z,51.63
2022-08-23T07:34:25.856Z,51.15
2022-08-23T07:35:25.846Z,47.82
2022-08-23T07:36:25.851Z,48.45
2022-08-23T07:37:25.829Z,52.15
2022-08-23T07:38:30.581Z,52.70
2022-08-23T07:39:25.807Z,53.64
2022-08-23T07:40:27.763Z,49.07
2022-08-23T07:41:25.807Z,46.26
2022-08-23T07:42:25.783Z,44.03
2022-08-23T07:43:25.774Z,48.63
2022-08-23T07:44:27.366Z,50.95
2022-08-23T07:45:25.754Z,48.70
2022-08-23T07:46:25.765Z,49.83
2022-08-23T07:47:25.740Z,52.74
2022-08-23T07:48:50.266Z,45.68
2022-08-23T07:49:29.312Z,50.79
2022-08-23T07:50:25.694Z,49.60
2022-08-23T07:51:25.692Z,50.72
2022-08-23T07:52:25.697Z,47.54
2022-08-23T07:53:37.281Z,47.66
2022-08-23T07:54:26.656Z,46.42
2022-08-23T07:55:25.653Z,45.80
2022-08-23T07:56:25.649Z,43.90
2022-08-23T07:57:25.647Z,51.23
2022-08-23T07:58:25.622Z,41.99
2022-08-23T07:59:25.617Z,46.60
2022-08-23T08:00:25.605Z,39.38
2022-08-23T08:01:25.670Z,45.70
2022-08-23T08:02:25.648Z,42.48
2022-08-23T08:03:25.586Z,49.20
2022-08-23T08:04:25.569Z,46.82
2022-08-23T08:05:25.564Z,41.46
2022-08-23T08:06:25.549Z,46.57
2022-08-23T08:07:25.559Z,45.24
2022-08-23T08:08:25.542Z,50.46
2022-08-23T08:09:25.518Z,43.30
2022-08-23T08:10:25.513Z,47.73
2022-08-23T08:11:25.503Z,49.17
2022-08-23T08:12:25.504Z,47.83
2022-08-23T08:13:25.496Z,42.79
2022-08-23T08:14:25.474Z,39.64
2022-08-23T08:15:25.464Z,50.24
2022-08-23T08:16:25.507Z,39.87
2022-08-23T08:17:27.534Z,43.36
2022-08-23T08:18:25.437Z,48.57
2022-08-23T08:19:25.442Z,43.61
2022-08-23T08:20:25.448Z,48.62
2022-08-23T08:21:25.410Z,49.89
2022-08-23T08:22:25.413Z,48.90
2022-08-23T08:23:25.431Z,45.96
2022-08-23T08:24:25.368Z,46.76
2022-08-23T08:25:25.376Z,46.89
2022-08-23T08:26:25.358Z,46.21
2022-08-23T08:27:25.368Z,47.38
2022-08-23T08:28:25.335Z,46.87
2022-08-23T08:29:25.337Z,45.98
2022-08-23T08:30:26.228Z,47.91
2022-08-23T08:31:25.336Z,44.12
2022-08-23T08:32:25.350Z,40.70
2022-08-23T08:33:25.294Z,44.45
2022-08-23T08:34:26.281Z,42.81
2022-08-23T08:35:25.301Z,46.18
2022-08-23T08:36:25.261Z,44.47
2022-08-23T08:37:25.261Z,43.83
2022-08-23T08:38:25.377Z,42.21
2022-08-23T08:39:25.239Z,44.91
2022-08-23T08:40:25.226Z,45.58
2022-08-23T08:41:25.217Z,47.68
2022-08-23T08:42:25.223Z,43.80
2022-08-23T08:43:25.219Z,48.08
2022-08-23T08:44:25.466Z,50.45
2022-08-23T08:45:26.392Z,46.48
2022-08-23T08:46:26.005Z,44.00
2022-08-23T08:47:25.181Z,48.97
2022-08-23T08:48:25.164Z,48.93
2022-08-23T08:49:25.150Z,44.30
2022-08-23T08:50:25.135Z,45.05
2022-08-23T08:51:25.149Z,41.13
2022-08-23T08:52:25.152Z,44.54
2022-08-23T08:53:25.116Z,43.27
2022-08-23T08:54:25.100Z,44.91
2022-08-23T08:55:25.099Z,41.90
2022-08-23T08:56:25.076Z,43.75
2022-08-23T08:57:27.504Z,43.95
2022-08-23T08:58:25.063Z,41.12
2022-08-23T08:59:25.059Z,38.59
2022-08-23T09:00:25.047Z,42.34
2022-08-23T09:01:25.063Z,44.96
2022-08-23T09:02:32.755Z,43.85
2022-08-23T09:03:26.066Z,48.88
2022-08-23T09:04:25.022Z,44.75
2022-08-23T09:05:25.005Z,36.15
2022-08-23T09:06:24.989Z,39.99
2022-08-23T09:07:30.561Z,44.22
2022-08-23T09:08:25.974Z,47.51
2022-08-23T09:09:24.966Z,46.60
2022-08-23T09:10:25.035Z,44.83
2022-08-23T09:11:24.949Z,42.08
2022-08-23T09:12:24.958Z,47.77
2022-08-23T09:13:24.931Z,44.06
2022-08-23T09:14:24.919Z,49.71
2022-08-23T09:15:24.912Z,46.07
2022-08-23T09:16:24.901Z,41.21
2022-08-23T09:17:24.903Z,45.85
2022-08-23T09:18:24.902Z,43.12
2022-08-23T09:19:25.156Z,43.39
2022-08-23T09:20:24.866Z,47.15
2022-08-23T09:21:24.861Z,47.03
2022-08-23T09:22:24.854Z,40.29
2022-08-23T09:23:24.867Z,47.10
2022-08-23T09:24:24.835Z,45.26
2022-08-23T09:25:24.833Z,43.02
2022-08-23T09:26:24.819Z,52.01
2022-08-23T09:27:24.895Z,50.32
2022-08-23T09:28:24.816Z,43.97
2022-08-23T09:29:24.798Z,44.38
2022-08-23T09:30:24.792Z,47.46
2022-08-23T09:31:24.842Z,45.33
2022-08-23T09:32:24.768Z,40.27
2022-08-23T09:33:26.219Z,45.13
2022-08-23T09:34:24.761Z,42.17
2022-08-23T09:35:24.749Z,43.37
2022-08-23T09:36:24.740Z,45.35
2022-08-23T09:37:24.731Z,42.05
2022-08-23T09:38:24.734Z,49.22
2022-08-23T09:39:27.296Z,48.53
2022-08-23T09:40:25.705Z,43.54
2022-08-23T09:41:24.693Z,45.37
2022-08-23T09:42:24.690Z,46.91
2022-08-23T09:43:24.701Z,47.19
2022-08-23T09:44:24.668Z,44.10
2022-08-23T09:45:24.668Z,42.48
2022-08-23T09:46:24.690Z,35.43
2022-08-23T09:47:24.652Z,43.83
2022-08-23T09:48:28.164Z,46.70
2022-08-23T09:49:25.635Z,40.47
2022-08-23T09:50:24.619Z,42.97
2022-08-23T09:51:25.171Z,37.72
2022-08-23T09:52:24.607Z,50.55
2022-08-23T09:53:24.599Z,42.69
2022-08-23T09:54:24.602Z,41.84
2022-08-23T09:55:24.597Z,34.42
2022-08-23T09:56:24.575Z,38.97
2022-08-23T09:57:24.570Z,44.04
2022-08-23T09:58:24.560Z,33.15
2022-08-23T09:59:26.892Z,41.51
2022-08-23T10:00:24.540Z,46.98
2022-08-23T10:01:24.624Z,36.62
2022-08-23T10:02:24.531Z,39.51
2022-08-23T10:03:24.524Z,47.65
2022-08-23T10:04:24.616Z,39.38
2022-08-23T10:05:24.509Z,48.08
2022-08-23T10:06:24.500Z,40.11
2022-08-23T10:07:25.492Z,36.54
2022-08-23T10:08:24.485Z,38.20
2022-08-23T10:09:24.490Z,44.86
2022-08-23T10:10:24.470Z,35.77
2022-08-23T10:11:24.465Z,39.66
2022-08-23T10:12:24.458Z,48.05
2022-08-23T10:13:24.441Z,46.12
2022-08-23T10:14:28.677Z,34.18
2022-08-23T10:15:25.427Z,38.08
2022-08-23T10:16:24.488Z,47.35
2022-08-23T10:17:24.414Z,45.70
2022-08-23T10:18:24.415Z,45.42
2022-08-23T10:19:24.427Z,44.79
2022-08-23T10:20:24.396Z,43.18
2022-08-23T10:21:24.496Z,46.20
2022-08-23T10:22:24.379Z,41.19
2022-08-23T10:23:24.375Z,36.47
2022-08-23T10:24:24.382Z,41.08
2022-08-23T10:25:24.357Z,40.39
2022-08-23T10:26:24.352Z,42.44
2022-08-23T10:27:24.344Z,46.05
2022-08-23T10:28:24.341Z,41.17
2022-08-23T10:29:24.344Z,48.92
2022-08-23T10:30:24.326Z,33.15
2022-08-23T10:31:24.343Z,33.87
2022-08-23T10:32:24.322Z,38.83
2022-08-23T10:33:24.301Z,40.30
2022-08-23T10:34:24.322Z,34.52
2022-08-23T10:35:24.309Z,45.31
2022-08-23T10:36:24.292Z,44.62
2022-08-23T10:37:24.282Z,41.89
2022-08-23T10:38:24.276Z,43.08
2022-08-23T10:39:24.282Z,40.36
2022-08-23T10:40:24.300Z,38.71
2022-08-23T10:41:24.246Z,40.13
2022-08-23T10:42:24.249Z,46.25
2022-08-23T10:43:24.238Z,41.88
2022-08-23T10:44:24.244Z,47.88
2022-08-23T10:45:24.221Z,48.18
2022-08-23T10:46:24.279Z,39.19
2022-08-23T10:47:24.207Z,36.15
2022-08-23T10:48:24.222Z,43.64
2022-08-23T10:49:24.230Z,48.56
2022-08-23T10:50:24.184Z,42.65
2022-08-23T10:51:31.518Z,39.54
2022-08-23T10:52:25.175Z,36.28
2022-08-23T10:53:24.160Z,42.58
2022-08-23T10:54:24.180Z,42.24
2022-08-23T10:55:24.144Z,35.35
2022-08-23T10:56:24.133Z,46.28
2022-08-23T10:57:24.127Z,50.73
2022-08-23T10:58:24.117Z,48.25
2022-08-23T10:59:24.271Z,42.18
2022-08-23T11:00:24.112Z,40.33
2022-08-23T11:01:24.118Z,42.52
2022-08-23T11:02:24.158Z,51.35
2022-08-23T11:03:28.624Z,48.64
2022-08-23T11:04:24.087Z,43.68
2022-08-23T11:05:24.063Z,47.65
2022-08-23T11:06:24.063Z,47.79
2022-08-23T11:07:24.045Z,43.69
2022-08-23T11:08:24.042Z,45.53
2022-08-23T11:09:25.810Z,39.51
2022-08-23T11:10:24.050Z,50.58
2022-08-23T11:11:24.010Z,51.65
2022-08-23T11:12:24.009Z,50.34
2022-08-23T11:13:24.001Z,49.05
2022-08-23T11:14:24.016Z,51.93
2022-08-23T11:15:23.978Z,49.87
2022-08-23T11:16:23.976Z,49.96
2022-08-23T11:17:23.981Z,50.31
2022-08-23T11:18:23.954Z,51.17
2022-08-23T11:19:23.940Z,51.76
2022-08-23T11:20:23.958Z,50.64
2022-08-23T11:21:23.929Z,49.79
2022-08-23T11:22:23.927Z,51.57
2022-08-23T11:23:23.916Z,50.09
2022-08-23T11:24:23.906Z,53.37
2022-08-23T11:25:24.014Z,50.62
2022-08-23T11:26:23.886Z,50.28
2022-08-23T11:27:23.876Z,46.74
2022-08-23T11:28:23.870Z,44.21
2022-08-23T11:29:23.861Z,47.99
2022-08-23T11:30:23.922Z,48.74
2022-08-23T11:31:23.923Z,46.58
2022-08-23T11:32:28.009Z,46.23
2022-08-23T11:33:23.837Z,43.96
2022-08-23T11:34:29.335Z,44.37
2022-08-23T11:35:24.824Z,44.78
2022-08-23T11:36:23.814Z,41.91
2022-08-23T11:37:23.792Z,46.81
2022-08-23T11:38:24.847Z,48.85
2022-08-23T11:39:25.520Z,51.32
2022-08-23T11:40:23.828Z,50.91
2022-08-23T11:41:23.761Z,43.09
2022-08-23T11:42:23.751Z,45.18
2022-08-23T11:43:23.744Z,51.01
2022-08-23T11:44:23.743Z,47.18
2022-08-23T11:45:23.737Z,50.31
2022-08-23T11:46:23.745Z,53.56
2022-08-23T11:47:23.719Z,49.09
2022-08-23T11:48:23.704Z,55.74
2022-08-23T11:49:23.694Z,56.79
2022-08-23T11:50:23.705Z,59.13
2022-08-23T11:51:23.673Z,53.30
2022-08-23T11:52:23.671Z,50.34
2022-08-23T11:53:23.660Z,51.71
2022-08-23T11:54:23.657Z,56.91
2022-08-23T11:55:24.310Z,59.13
2022-08-23T11:56:23.641Z,56.80
2022-08-23T11:57:23.626Z,57.93
2022-08-23T11:58:23.622Z,57.66
2022-08-23T11:59:23.804Z,55.65
2022-08-23T12:00:27.786Z,57.73
2022-08-23T12:01:24.591Z,57.07
2022-08-23T12:02:23.650Z,56.68
2022-08-23T12:03:23.622Z,58.84
2022-08-23T12:04:23.566Z,56.63
2022-08-23T12:05:23.570Z,58.10
2022-08-23T12:06:23.546Z,56.93
2022-08-23T12:07:23.537Z,57.13
2022-08-23T12:08:23.580Z,56.94
2022-08-23T12:09:23.517Z,57.14
2022-08-23T12:10:23.531Z,58.16
2022-08-23T12:11:23.496Z,56.14
2022-08-23T12:12:23.497Z,54.66
2022-08-23T12:13:23.484Z,56.47
2022-08-23T12:14:23.472Z,57.05
2022-08-23T12:15:23.473Z,58.68
2022-08-23T12:16:23.525Z,55.60
2022-08-23T12:17:23.454Z,55.05
2022-08-23T12:18:25.065Z,57.26
2022-08-23T12:19:23.427Z,55.89
2022-08-23T12:20:24.325Z,60.31
2022-08-23T12:21:23.427Z,57.71
2022-08-23T12:22:23.400Z,56.36
2022-08-23T12:23:23.400Z,59.47
2022-08-23T12:24:23.386Z,59.30
2022-08-23T12:25:23.493Z,58.74
2022-08-23T12:26:23.368Z,57.66
2022-08-23T12:27:23.360Z,56.93
2022-08-23T12:28:23.353Z,56.92
2022-08-23T12:29:23.345Z,56.02
2022-08-23T12:30:23.398Z,57.60
2022-08-23T12:31:23.337Z,57.89
2022-08-23T12:32:23.969Z,55.95
2022-08-23T12:33:23.336Z,58.35
2022-08-23T12:34:23.304Z,57.97
2022-08-23T12:35:23.295Z,58.12
2022-08-23T12:36:23.273Z,57.30
2022-08-23T12:37:23.264Z,58.53
2022-08-23T12:38:23.249Z,56.96
2022-08-23T12:39:23.237Z,56.86
2022-08-23T12:40:23.272Z,57.79
2022-08-23T12:41:23.231Z,57.29
2022-08-23T12:42:23.230Z,58.64
2022-08-23T12:43:23.215Z,59.18
2022-08-23T12:44:23.209Z,59.22
2022-08-23T12:45:23.213Z,57.29
2022-08-23T12:46:23.273Z,57.90
2022-08-23T12:47:23.167Z,54.18
2022-08-23T12:48:23.160Z,59.21
2022-08-23T12:49:23.155Z,47.58
2022-08-23T12:50:23.162Z,48.39
2022-08-23T12:51:24.135Z,51.45
2022-08-23T12:52:23.146Z,49.65